createdAt,value
2016-08-06T00:00:52.375Z,0
2016-08-06T00:01:52.389Z,0
2016-08-06T00:02:52.360Z,0
2016-08-06T00:03:52.374Z,0
2016-08-06T00:04:52.374Z,0
2016-08-06T00:05:52.321Z,0
2016-08-06T00:06:52.370Z,0
2016-08-06T00:07:52.343Z,0
2016-08-06T00:08:52.343Z,0
2016-08-06T00:09:52.406Z,0
2016-08-06T00:10:52.351Z,0
2016-08-06T00:11:52.329Z,0
2016-08-06T00:12:52.383Z,0
2016-08-06T00:13:52.351Z,0
2016-08-06T00:14:52.352Z,0
2016-08-06T00:15:52.357Z,0
2016-08-06T00:16:52.390Z,0
2016-08-06T00:18:38.690Z,0
2016-08-06T00:19:20.273Z,0
2016-08-06T00:20:53.064Z,0
2016-08-06T00:21:17.160Z,0
2016-08-06T00:22:12.831Z,0
2016-08-06T00:24:01.882Z,0
2016-08-06T00:25:27.527Z,0
2016-08-06T00:26:56.695Z,0
2016-08-06T00:28:22.837Z,0
2016-08-06T00:29:47.724Z,0
2016-08-06T00:31:11.052Z,0
2016-08-06T00:32:35.263Z,0
2016-08-06T00:33:59.243Z,0
2016-08-06T00:35:24.145Z,0
2016-08-06T00:36:49.082Z,0
2016-08-06T00:37:29.825Z,0
2016-08-06T00:39:00.037Z,0
2016-08-06T00:40:17.617Z,0
2016-08-06T00:41:37.143Z,0
2016-08-06T00:42:31.307Z,0
2016-08-06T00:43:10.933Z,0
2016-08-06T00:44:10.886Z,0
2016-08-06T00:46:19.481Z,0
2016-08-06T00:47:35.703Z,0
2016-08-06T00:49:01.079Z,0
2016-08-06T00:50:28.511Z,0
2016-08-06T00:51:54.462Z,0
2016-08-06T00:53:17.824Z,0
2016-08-06T00:54:41.145Z,0
2016-08-06T00:56:04.921Z,0
2016-08-06T00:57:29.049Z,0
2016-08-06T00:58:53.225Z,0
2016-08-06T01:01:31.244Z,0
2016-08-06T01:02:20.226Z,0
2016-08-06T01:03:04.234Z,0
2016-08-06T01:04:04.229Z,0
2016-08-06T01:05:04.947Z,0
2016-08-06T01:06:04.277Z,0
2016-08-06T01:07:04.245Z,0
2016-08-06T01:08:04.234Z,0
2016-08-06T01:09:04.260Z,0
2016-08-06T01:10:04.233Z,0
2016-08-06T01:11:04.277Z,0
2016-08-06T01:12:04.229Z,0
2016-08-06T01:13:04.404Z,0
2016-08-06T01:14:04.263Z,0
2016-08-06T01:15:04.275Z,0
2016-08-06T01:16:04.228Z,0
2016-08-06T01:17:04.232Z,0
2016-08-06T01:18:04.274Z,0
2016-08-06T01:19:04.243Z,0
2016-08-06T01:20:04.243Z,0
2016-08-06T01:21:04.298Z,0
2016-08-06T01:22:04.201Z,0
2016-08-06T01:23:04.231Z,0
2016-08-06T01:24:04.298Z,0
2016-08-06T01:25:04.231Z,0
2016-08-06T01:26:04.211Z,0
2016-08-06T01:27:04.260Z,0
2016-08-06T01:28:04.232Z,0
2016-08-06T01:29:04.259Z,0
2016-08-06T01:30:04.230Z,0
2016-08-06T01:31:04.278Z,0
2016-08-06T01:32:04.236Z,0
2016-08-06T01:33:04.231Z,0
2016-08-06T01:34:04.266Z,0
2016-08-06T01:35:04.234Z,0
2016-08-06T01:36:04.288Z,0
2016-08-06T01:37:04.205Z,0
2016-08-06T01:38:04.216Z,0
2016-08-06T01:39:04.229Z,0
2016-08-06T01:40:04.293Z,0
2016-08-06T01:41:04.291Z,0
2016-08-06T01:42:04.271Z,0
2016-08-06T01:43:04.230Z,0
2016-08-06T01:44:04.291Z,0
2016-08-06T01:45:04.290Z,0
2016-08-06T01:46:04.350Z,0
2016-08-06T01:47:04.325Z,0
2016-08-06T01:48:04.331Z,0
2016-08-06T01:49:04.296Z,0
2016-08-06T01:50:04.359Z,0
2016-08-06T01:51:04.304Z,0
2016-08-06T01:52:04.331Z,0
2016-08-06T01:53:04.343Z,0
2016-08-06T01:54:04.274Z,0
2016-08-06T01:55:04.285Z,0
2016-08-06T01:56:04.297Z,0
2016-08-06T01:57:04.352Z,0
2016-08-06T01:58:04.273Z,0
2016-08-06T01:59:04.263Z,0
2016-08-06T02:00:04.297Z,0
2016-08-06T02:01:04.263Z,0
2016-08-06T02:02:04.298Z,0
2016-08-06T02:03:04.289Z,0
2016-08-06T02:04:04.249Z,0
2016-08-06T02:05:04.244Z,0
2016-08-06T02:06:04.298Z,0
2016-08-06T02:07:04.262Z,0
2016-08-06T02:08:04.293Z,0
2016-08-06T02:09:04.293Z,0
2016-08-06T02:10:04.279Z,0
2016-08-06T02:11:04.292Z,0
2016-08-06T02:12:04.295Z,0
2016-08-06T02:13:04.250Z,0
2016-08-06T02:14:04.297Z,0
2016-08-06T02:15:04.300Z,0
2016-08-06T02:16:04.268Z,0
2016-08-06T02:17:04.292Z,0
2016-08-06T02:18:04.326Z,0
2016-08-06T02:19:04.301Z,0
2016-08-06T02:20:04.294Z,0
2016-08-06T02:21:04.278Z,0
2016-08-06T02:22:04.286Z,0
2016-08-06T02:23:04.318Z,0
2016-08-06T02:24:04.321Z,0
2016-08-06T02:25:04.263Z,0
2016-08-06T02:26:04.307Z,0
2016-08-06T02:27:04.352Z,0
2016-08-06T02:28:04.314Z,0
2016-08-06T02:29:04.333Z,0
2016-08-06T02:30:04.329Z,0
2016-08-06T02:31:04.323Z,0
2016-08-06T02:32:04.291Z,0
2016-08-06T02:33:04.288Z,0
2016-08-06T02:34:04.324Z,0
2016-08-06T02:35:04.297Z,0
2016-08-06T02:36:04.322Z,0
2016-08-06T02:37:04.293Z,0
2016-08-06T02:38:04.290Z,0
2016-08-06T02:39:04.284Z,0
2016-08-06T02:40:04.325Z,0
2016-08-06T02:41:04.279Z,0
2016-08-06T02:42:04.287Z,0
2016-08-06T02:43:04.340Z,0
2016-08-06T02:44:04.274Z,0
2016-08-06T02:45:04.311Z,0
2016-08-06T02:46:04.293Z,0
2016-08-06T02:47:04.299Z,0
2016-08-06T02:48:04.307Z,0
2016-08-06T02:49:04.323Z,0
2016-08-06T02:50:04.324Z,0
2016-08-06T02:51:04.539Z,0
2016-08-06T02:52:04.324Z,0
2016-08-06T02:53:04.382Z,0
2016-08-06T02:54:04.329Z,0
2016-08-06T02:55:04.320Z,0
2016-08-06T02:56:04.297Z,0
2016-08-06T02:57:04.326Z,0
2016-08-06T02:58:04.302Z,0
2016-08-06T02:59:04.292Z,0
2016-08-06T03:00:04.300Z,0
2016-08-06T03:01:04.300Z,0
2016-08-06T03:02:04.363Z,0
2016-08-06T03:03:04.296Z,0
2016-08-06T03:04:04.296Z,0
2016-08-06T03:05:04.356Z,0
2016-08-06T03:06:04.364Z,0
2016-08-06T03:07:04.309Z,0
2016-08-06T03:08:04.408Z,0
2016-08-06T03:09:04.343Z,0
2016-08-06T03:10:04.330Z,0
2016-08-06T03:11:04.326Z,0
2016-08-06T03:12:04.330Z,0
2016-08-06T03:13:04.309Z,0
2016-08-06T03:14:04.304Z,0
2016-08-06T03:15:04.334Z,0
2016-08-06T03:16:04.569Z,0
2016-08-06T03:17:04.337Z,0
2016-08-06T03:18:04.329Z,0
2016-08-06T03:19:04.325Z,0
2016-08-06T03:20:04.402Z,0
2016-08-06T03:21:04.369Z,0
2016-08-06T03:22:04.418Z,0
2016-08-06T03:23:04.327Z,0
2016-08-06T03:24:04.419Z,4
2016-08-06T03:25:04.360Z,4
2016-08-06T03:26:04.414Z,4
2016-08-06T03:27:04.356Z,0
2016-08-06T03:28:04.297Z,4
2016-08-06T03:29:04.392Z,4
2016-08-06T03:30:04.330Z,8
2016-08-06T03:31:04.339Z,4
2016-08-06T03:32:04.334Z,8
2016-08-06T03:33:04.278Z,4
2016-08-06T03:34:04.404Z,8
2016-08-06T03:35:04.344Z,8
2016-08-06T03:36:04.392Z,12
2016-08-06T03:37:04.358Z,12
2016-08-06T03:38:04.374Z,16
2016-08-06T03:39:04.349Z,20
2016-08-06T03:40:04.422Z,24
2016-08-06T03:41:04.362Z,28
2016-08-06T03:42:04.418Z,32
2016-08-06T03:43:04.311Z,36
2016-08-06T03:44:04.403Z,40
2016-08-06T03:45:04.325Z,48
2016-08-06T03:46:04.369Z,52
2016-08-06T03:47:04.358Z,60
2016-08-06T03:48:04.389Z,68
2016-08-06T03:49:04.358Z,76
2016-08-06T03:50:04.356Z,84
2016-08-06T03:51:04.362Z,92
2016-08-06T03:52:04.357Z,100
2016-08-06T03:53:04.380Z,112
2016-08-06T03:54:04.329Z,128
2016-08-06T03:55:04.942Z,140
2016-08-06T03:56:04.358Z,148
2016-08-06T03:57:04.353Z,156
2016-08-06T03:58:04.358Z,164
2016-08-06T03:59:04.384Z,172
2016-08-06T04:00:04.389Z,180
2016-08-06T04:01:04.295Z,196
2016-08-06T04:02:04.400Z,212
2016-08-06T04:03:04.335Z,232
2016-08-06T04:04:04.425Z,256
2016-08-06T04:05:04.409Z,280
2016-08-06T04:06:04.386Z,308
2016-08-06T04:07:04.381Z,340
2016-08-06T04:08:04.420Z,372
2016-08-06T04:09:04.394Z,412
2016-08-06T04:10:04.360Z,456
2016-08-06T04:11:04.424Z,516
2016-08-06T04:12:04.373Z,576
2016-08-06T04:13:04.362Z,616
2016-08-06T04:14:05.364Z,656
2016-08-06T04:15:04.351Z,700
2016-08-06T04:17:04.411Z,784
2016-08-06T04:18:04.371Z,836
2016-08-06T04:19:04.380Z,888
2016-08-06T04:20:04.365Z,944
2016-08-06T04:21:04.390Z,996
2016-08-06T04:22:04.371Z,1060
2016-08-06T04:23:04.379Z,1128
2016-08-06T04:24:04.386Z,1196
2016-08-06T04:25:04.412Z,1240
2016-08-06T04:26:04.440Z,1280
2016-08-06T04:27:04.390Z,1320
2016-08-06T04:28:04.699Z,1392
2016-08-06T04:29:05.820Z,1492
2016-08-06T04:30:04.379Z,1608
2016-08-06T04:32:04.442Z,1776
2016-08-06T04:33:04.462Z,1836
2016-08-06T04:34:04.392Z,1924
2016-08-06T04:35:04.427Z,2012
2016-08-06T04:36:04.382Z,2092
2016-08-06T04:37:04.394Z,2156
2016-08-06T04:38:04.451Z,2228
2016-08-06T04:39:04.400Z,2316
2016-08-06T04:40:04.437Z,2444
2016-08-06T04:41:04.411Z,2688
2016-08-06T04:42:04.520Z,3044
2016-08-06T04:43:04.491Z,3364
2016-08-06T04:44:04.492Z,3488
2016-08-06T04:45:04.427Z,3520
2016-08-06T04:46:04.481Z,3568
2016-08-06T04:47:04.423Z,3716
2016-08-06T04:48:04.426Z,3968
2016-08-06T04:49:04.408Z,4236
2016-08-06T04:50:04.403Z,4376
2016-08-06T04:51:04.423Z,4392
2016-08-06T04:52:04.454Z,4272
2016-08-06T04:53:04.558Z,3964
2016-08-06T04:54:04.485Z,3620
2016-08-06T04:55:04.422Z,3308
2016-08-06T04:56:04.423Z,3116
2016-08-06T04:57:04.455Z,3008
2016-08-06T04:58:04.394Z,2916
2016-08-06T04:59:04.404Z,2800
2016-08-06T05:00:04.422Z,2648
2016-08-06T05:01:04.423Z,2540
2016-08-06T05:02:04.422Z,2480
2016-08-06T05:03:04.527Z,2416
2016-08-06T05:04:04.492Z,2340
2016-08-06T05:05:04.491Z,2232
2016-08-06T05:06:04.445Z,2152
2016-08-06T05:07:04.483Z,2140
2016-08-06T05:08:04.465Z,2368
2016-08-06T05:09:04.430Z,2976
2016-08-06T05:10:04.400Z,3556
2016-08-06T05:11:04.552Z,3900
2016-08-06T05:12:04.402Z,4148
2016-08-06T05:13:04.481Z,4196
2016-08-06T05:14:04.498Z,4084
2016-08-06T05:15:04.418Z,3920
2016-08-06T05:16:04.483Z,3728
2016-08-06T05:17:04.457Z,3544
2016-08-06T05:18:04.458Z,3404
2016-08-06T05:19:04.461Z,3376
2016-08-06T05:20:04.468Z,3492
2016-08-06T05:21:04.437Z,3728
2016-08-06T05:22:04.438Z,4040
2016-08-06T05:23:04.436Z,4536
2016-08-06T05:24:04.452Z,5204
2016-08-06T05:25:04.454Z,5740
2016-08-06T05:26:04.453Z,6164
2016-08-06T05:27:04.455Z,6548
2016-08-06T05:28:04.420Z,6800
2016-08-06T05:29:04.465Z,6924
2016-08-06T05:30:05.449Z,6976
2016-08-06T05:31:04.454Z,7208
2016-08-06T05:32:04.403Z,7504
2016-08-06T05:33:04.532Z,7512
2016-08-06T05:34:04.467Z,7508
2016-08-06T05:35:04.451Z,7444
2016-08-06T05:36:04.420Z,7408
2016-08-06T05:37:04.438Z,7348
2016-08-06T05:38:04.485Z,7436
2016-08-06T05:39:04.604Z,7896
2016-08-06T05:40:04.448Z,8120
2016-08-06T05:41:04.456Z,8196
2016-08-06T05:42:04.447Z,8304
2016-08-06T05:43:04.436Z,8548
2016-08-06T05:44:04.472Z,8672
2016-08-06T05:45:04.462Z,8656
2016-08-06T05:46:04.408Z,8604
2016-08-06T05:47:04.444Z,8420
2016-08-06T05:48:04.460Z,7936
2016-08-06T05:49:04.485Z,7576
2016-08-06T05:50:04.496Z,7628
2016-08-06T05:51:04.607Z,7672
2016-08-06T05:52:04.453Z,7684
2016-08-06T05:53:04.466Z,7624
2016-08-06T05:54:04.581Z,7384
2016-08-06T05:55:04.536Z,7328
2016-08-06T05:56:04.516Z,7460
2016-08-06T05:57:04.485Z,8044
2016-08-06T05:58:04.488Z,8324
2016-08-06T05:59:04.525Z,8308
2016-08-06T06:00:05.369Z,8128
2016-08-06T06:01:04.474Z,7812
2016-08-06T06:02:04.486Z,7968
2016-08-06T06:03:04.486Z,7992
2016-08-06T06:04:04.465Z,8248
2016-08-06T06:05:04.489Z,9036
2016-08-06T06:06:04.514Z,10256
2016-08-06T06:07:04.515Z,11560
2016-08-06T06:08:04.476Z,13208
2016-08-06T06:09:04.494Z,14416
2016-08-06T06:10:04.457Z,15204
2016-08-06T06:11:04.491Z,15876
2016-08-06T06:12:04.476Z,16240
2016-08-06T06:13:04.457Z,16572
2016-08-06T06:14:04.469Z,15996
2016-08-06T06:15:04.494Z,15972
2016-08-06T06:16:04.519Z,13664
2016-08-06T06:17:04.487Z,10496
2016-08-06T06:18:04.522Z,8716
2016-08-06T06:19:04.490Z,7992
2016-08-06T06:20:04.460Z,10332
2016-08-06T06:21:04.516Z,16096
2016-08-06T06:22:04.490Z,15768
2016-08-06T06:23:04.534Z,12304
2016-08-06T06:24:04.527Z,10680
2016-08-06T06:25:04.519Z,10060
2016-08-06T06:26:04.510Z,10700
2016-08-06T06:27:52.082Z,10028
2016-08-06T06:28:47.122Z,9352
2016-08-06T06:29:35.559Z,9084
2016-08-06T06:30:27.135Z,9952
2016-08-06T06:31:27.092Z,10120
2016-08-06T06:32:27.053Z,10700
2016-08-06T06:33:27.048Z,11560
2016-08-06T06:34:27.019Z,12276
2016-08-06T06:35:27.027Z,13028
2016-08-06T06:36:27.952Z,13840
2016-08-06T06:37:27.050Z,12664
2016-08-06T06:38:27.049Z,12308
2016-08-06T06:39:27.057Z,12152
2016-08-06T06:40:27.041Z,12824
2016-08-06T06:41:27.075Z,12556
2016-08-06T06:42:27.078Z,12716
2016-08-06T06:43:27.012Z,13956
2016-08-06T06:44:27.053Z,15360
2016-08-06T06:45:27.029Z,16232
2016-08-06T06:46:27.069Z,17320
2016-08-06T06:47:27.028Z,16896
2016-08-06T06:48:27.011Z,16132
2016-08-06T06:49:27.077Z,16628
2016-08-06T06:50:27.063Z,16068
2016-08-06T06:51:27.058Z,14256
2016-08-06T06:52:28.191Z,13964
2016-08-06T06:53:27.035Z,14388
2016-08-06T06:54:27.036Z,14720
2016-08-06T06:55:27.050Z,14704
2016-08-06T06:56:27.034Z,15348
2016-08-06T06:57:27.050Z,15352
2016-08-06T06:58:27.045Z,14324
2016-08-06T06:59:27.038Z,13772
2016-08-06T07:00:27.051Z,13880
2016-08-06T07:01:27.040Z,14000
2016-08-06T07:02:27.950Z,13468
2016-08-06T07:03:27.020Z,13784
2016-08-06T07:04:27.057Z,13744
2016-08-06T07:05:27.093Z,13140
2016-08-06T07:06:27.019Z,14512
2016-08-06T07:07:27.080Z,15328
2016-08-06T07:08:27.046Z,14868
2016-08-06T07:09:27.052Z,14308
2016-08-06T07:10:27.123Z,14156
2016-08-06T07:11:27.023Z,13692
2016-08-06T07:12:27.037Z,12840
2016-08-06T07:13:27.110Z,12696
2016-08-06T07:14:27.078Z,12852
2016-08-06T07:15:27.078Z,11176
2016-08-06T07:16:27.057Z,10736
2016-08-06T07:17:27.082Z,10660
2016-08-06T07:18:27.098Z,11960
2016-08-06T07:19:27.061Z,14152
2016-08-06T07:20:27.102Z,15972
2016-08-06T07:21:27.037Z,16288
2016-08-06T07:22:27.159Z,16480
2016-08-06T07:23:27.135Z,16172
2016-08-06T07:24:27.055Z,16108
2016-08-06T07:25:27.116Z,15100
2016-08-06T07:26:27.160Z,16372
2016-08-06T07:27:27.103Z,20000
2016-08-06T07:28:27.088Z,26560
2016-08-06T07:29:27.115Z,32096
2016-08-06T07:30:27.084Z,32416
2016-08-06T07:31:29.388Z,46272
2016-08-06T07:32:27.102Z,51104
2016-08-06T07:33:27.072Z,52256
2016-08-06T07:34:27.125Z,27520
2016-08-06T07:35:27.082Z,32640
2016-08-06T07:36:27.083Z,21312
2016-08-06T07:37:27.102Z,19584
2016-08-06T07:38:27.096Z,18752
2016-08-06T07:39:27.119Z,17112
2016-08-06T07:40:27.116Z,15980
2016-08-06T07:41:27.091Z,16376
2016-08-06T07:42:27.112Z,16844
2016-08-06T07:43:27.082Z,16788
2016-08-06T07:44:27.197Z,16996
2016-08-06T07:45:27.091Z,17360
2016-08-06T07:46:27.052Z,18976
2016-08-06T07:47:27.142Z,19712
2016-08-06T07:48:27.136Z,17984
2016-08-06T07:49:27.108Z,15744
2016-08-06T07:50:27.147Z,14164
2016-08-06T07:51:27.110Z,12436
2016-08-06T07:52:27.076Z,10580
2016-08-06T07:53:27.144Z,9080
2016-08-06T07:54:27.133Z,8320
2016-08-06T07:55:27.107Z,8916
2016-08-06T07:56:27.150Z,13860
2016-08-06T07:57:27.125Z,14048
2016-08-06T07:58:27.700Z,15384
2016-08-06T07:59:27.148Z,17040
2016-08-06T08:00:27.113Z,18948
2016-08-06T08:01:27.090Z,21760
2016-08-06T08:02:28.090Z,23584
2016-08-06T08:03:27.119Z,23104
2016-08-06T08:04:27.081Z,22048
2016-08-06T08:05:27.130Z,23584
2016-08-06T08:06:27.136Z,23040
2016-08-06T08:07:27.143Z,20256
2016-08-06T08:08:27.153Z,19616
2016-08-06T08:09:27.125Z,18592
2016-08-06T08:10:27.140Z,17164
2016-08-06T08:11:27.094Z,16500
2016-08-06T08:12:27.142Z,16144
2016-08-06T08:13:27.119Z,16752
2016-08-06T08:14:28.107Z,17328
2016-08-06T08:15:27.192Z,17784
2016-08-06T08:16:27.108Z,18688
2016-08-06T08:17:27.123Z,18752
2016-08-06T08:18:27.122Z,17684
2016-08-06T08:19:27.144Z,16856
2016-08-06T08:20:27.144Z,17084
2016-08-06T08:21:27.182Z,17344
2016-08-06T08:22:27.179Z,18944
2016-08-06T08:23:27.151Z,19488
2016-08-06T08:24:27.159Z,20000
2016-08-06T08:25:27.153Z,20288
2016-08-06T08:26:27.180Z,18912
2016-08-06T08:27:27.149Z,17544
2016-08-06T08:28:27.174Z,16880
2016-08-06T08:29:28.108Z,16076
2016-08-06T08:30:27.754Z,15600
2016-08-06T08:31:27.163Z,15292
2016-08-06T08:32:26.987Z,15084
2016-08-06T08:33:27.156Z,14356
2016-08-06T08:34:27.144Z,13592
2016-08-06T08:35:27.132Z,13400
2016-08-06T08:36:27.200Z,13172
2016-08-06T08:37:27.212Z,12752
2016-08-06T08:38:27.103Z,11256
2016-08-06T08:39:27.185Z,11360
2016-08-06T08:40:27.147Z,11204
2016-08-06T08:41:27.181Z,11084
2016-08-06T08:42:27.114Z,10760
2016-08-06T08:43:27.151Z,10272
2016-08-06T08:44:27.144Z,10324
2016-08-06T08:45:27.166Z,10644
2016-08-06T08:46:27.180Z,11516
2016-08-06T08:47:27.146Z,13028
2016-08-06T08:48:27.149Z,13632
2016-08-06T08:49:27.210Z,12188
2016-08-06T08:50:27.162Z,12848
2016-08-06T08:51:27.178Z,13740
2016-08-06T08:52:27.216Z,15064
2016-08-06T08:53:27.169Z,15432
2016-08-06T08:54:27.202Z,15088
2016-08-06T08:55:27.276Z,15440
2016-08-06T08:56:27.225Z,15524
2016-08-06T08:57:27.234Z,15716
2016-08-06T08:58:27.226Z,16932
2016-08-06T08:59:27.236Z,17728
2016-08-06T09:00:27.290Z,15616
2016-08-06T09:01:27.211Z,15456
2016-08-06T09:02:27.026Z,16024
2016-08-06T09:03:27.247Z,17492
2016-08-06T09:04:27.206Z,17664
2016-08-06T09:05:27.257Z,17228
2016-08-06T09:06:27.207Z,18752
2016-08-06T09:07:27.215Z,18752
2016-08-06T09:08:27.219Z,18352
2016-08-06T09:09:27.209Z,19328
2016-08-06T09:10:27.265Z,19520
2016-08-06T09:11:27.189Z,19328
2016-08-06T09:12:27.228Z,18284
2016-08-06T09:13:27.240Z,17340
2016-08-06T09:14:27.224Z,16724
2016-08-06T09:15:27.256Z,17644
2016-08-06T09:16:27.267Z,19616
2016-08-06T09:18:27.276Z,17612
2016-08-06T09:19:27.220Z,16216
2016-08-06T09:20:27.292Z,14948
2016-08-06T09:21:27.271Z,14312
2016-08-06T09:22:27.201Z,14552
2016-08-06T09:23:27.182Z,14896
2016-08-06T09:24:27.181Z,14792
2016-08-06T09:25:27.238Z,14248
2016-08-06T09:26:27.244Z,13432
2016-08-06T09:27:27.233Z,12644
2016-08-06T09:28:27.209Z,11968
2016-08-06T09:29:27.207Z,11092
2016-08-06T09:30:27.227Z,10396
2016-08-06T09:31:27.237Z,9832
2016-08-06T09:33:27.288Z,9212
2016-08-06T09:34:27.238Z,8776
2016-08-06T09:35:27.212Z,8404
2016-08-06T09:36:27.205Z,8704
2016-08-06T09:37:28.190Z,9456
2016-08-06T09:38:27.717Z,10168
2016-08-06T09:39:27.209Z,10696
2016-08-06T09:40:27.233Z,11160
2016-08-06T09:41:27.235Z,11368
2016-08-06T09:42:27.208Z,11288
2016-08-06T09:43:27.248Z,11100
2016-08-06T09:44:27.275Z,10736
2016-08-06T09:45:27.200Z,10448
2016-08-06T09:46:27.330Z,10036
2016-08-06T09:48:28.235Z,8944
2016-08-06T09:49:27.299Z,8644
2016-08-06T09:50:27.238Z,8664
2016-08-06T09:51:27.197Z,8960
2016-08-06T09:52:27.209Z,9444
2016-08-06T09:53:27.298Z,9992
2016-08-06T09:54:27.333Z,10464
2016-08-06T09:55:27.278Z,10504
2016-08-06T09:56:27.221Z,10000
2016-08-06T09:57:27.344Z,9324
2016-08-06T09:58:27.264Z,8948
2016-08-06T09:59:28.309Z,8956
2016-08-06T10:00:27.404Z,9312
2016-08-06T10:01:27.264Z,9840
2016-08-06T10:03:27.238Z,11168
2016-08-06T10:04:27.393Z,12276
2016-08-06T10:05:27.281Z,13260
2016-08-06T10:06:27.261Z,14120
2016-08-06T10:07:27.290Z,15312
2016-08-06T10:08:27.252Z,16468
2016-08-06T10:09:27.270Z,17460
2016-08-06T10:10:27.242Z,18004
2016-08-06T10:11:27.259Z,18344
2016-08-06T10:12:27.275Z,18252
2016-08-06T10:13:27.250Z,17980
2016-08-06T10:14:27.261Z,18108
2016-08-06T10:15:27.250Z,18172
2016-08-06T10:16:27.274Z,17340
2016-08-06T10:18:27.346Z,16036
2016-08-06T10:19:27.246Z,15596
2016-08-06T10:20:27.278Z,15416
2016-08-06T10:21:27.373Z,16336
2016-08-06T10:22:27.261Z,16796
2016-08-06T10:23:27.240Z,15968
2016-08-06T10:24:27.299Z,15012
2016-08-06T10:25:27.305Z,14544
2016-08-06T10:26:27.475Z,13948
2016-08-06T10:27:27.408Z,13532
2016-08-06T10:28:27.306Z,12948
2016-08-06T10:29:27.290Z,12216
2016-08-06T10:30:27.292Z,11408
2016-08-06T10:31:27.328Z,10652
2016-08-06T10:32:27.347Z,9784
2016-08-06T10:33:27.287Z,9144
2016-08-06T10:34:27.252Z,9264
2016-08-06T10:35:27.324Z,9820
2016-08-06T10:36:27.244Z,9860
2016-08-06T10:37:27.287Z,9736
2016-08-06T10:38:27.258Z,9752
2016-08-06T10:39:27.262Z,10120
2016-08-06T10:40:27.426Z,11120
2016-08-06T10:41:27.294Z,12288
2016-08-06T10:42:28.119Z,13124
2016-08-06T10:43:27.308Z,13236
2016-08-06T10:44:27.344Z,13428
2016-08-06T10:45:28.205Z,13372
2016-08-06T10:46:27.335Z,12792
2016-08-06T10:47:27.307Z,12224
2016-08-06T10:48:27.254Z,12828
2016-08-06T10:49:27.288Z,13664
2016-08-06T10:50:27.962Z,15060
2016-08-06T10:51:27.338Z,15984
2016-08-06T10:52:27.348Z,16180
2016-08-06T10:53:27.333Z,15668
2016-08-06T10:54:28.028Z,15028
2016-08-06T10:55:27.410Z,14816
2016-08-06T10:56:27.275Z,14852
2016-08-06T10:57:27.284Z,14584
2016-08-06T10:58:27.391Z,14376
2016-08-06T10:59:27.365Z,14424
2016-08-06T11:00:27.316Z,13100
2016-08-06T11:01:27.482Z,12420
2016-08-06T11:02:27.532Z,12104
2016-08-06T11:03:27.337Z,11180
2016-08-06T11:04:27.368Z,10576
2016-08-06T11:05:27.330Z,10264
2016-08-06T11:06:27.362Z,10228
2016-08-06T11:07:27.308Z,10924
2016-08-06T11:08:27.339Z,11964
2016-08-06T11:09:27.303Z,12968
2016-08-06T11:10:27.318Z,13000
2016-08-06T11:11:27.364Z,12760
2016-08-06T11:12:27.244Z,12400
2016-08-06T11:13:27.353Z,11960
2016-08-06T11:14:27.276Z,11616
2016-08-06T11:15:27.429Z,11428
2016-08-06T11:16:27.326Z,11472
2016-08-06T11:17:27.304Z,11200
2016-08-06T11:18:27.573Z,10856
2016-08-06T11:19:27.397Z,10692
2016-08-06T11:20:27.429Z,10616
2016-08-06T11:21:27.317Z,10736
2016-08-06T11:22:27.500Z,10940
2016-08-06T11:23:27.365Z,10480
2016-08-06T11:24:27.337Z,8944
2016-08-06T11:25:27.357Z,8028
2016-08-06T11:26:27.339Z,7092
2016-08-06T11:27:27.340Z,6064
2016-08-06T11:28:27.333Z,4928
2016-08-06T11:29:27.400Z,3584
2016-08-06T11:30:27.333Z,2360
2016-08-06T11:31:27.348Z,2664
2016-08-06T11:32:27.403Z,3812
2016-08-06T11:33:27.337Z,4596
2016-08-06T11:34:27.335Z,4700
2016-08-06T11:35:27.346Z,4292
2016-08-06T11:36:27.497Z,3880
2016-08-06T11:37:27.310Z,3572
2016-08-06T11:38:27.393Z,2916
2016-08-06T11:39:27.372Z,2008
2016-08-06T11:40:27.395Z,1496
2016-08-06T11:41:27.383Z,1664
2016-08-06T11:42:27.447Z,3148
2016-08-06T11:43:27.356Z,6612
2016-08-06T11:44:27.418Z,10044
2016-08-06T11:45:27.936Z,11528
2016-08-06T11:46:27.343Z,12252
2016-08-06T11:47:28.163Z,11668
2016-08-06T11:48:27.431Z,10440
2016-08-06T11:49:27.392Z,10180
2016-08-06T11:50:27.401Z,9932
2016-08-06T11:51:27.356Z,9164
2016-08-06T11:52:27.399Z,8148
2016-08-06T11:53:27.427Z,7680
2016-08-06T11:54:27.393Z,7384
2016-08-06T11:55:27.398Z,6952
2016-08-06T11:56:27.515Z,6420
2016-08-06T11:57:27.501Z,6056
2016-08-06T11:58:27.386Z,5392
2016-08-06T11:59:27.410Z,4600
2016-08-06T12:00:27.369Z,3816
2016-08-06T12:01:27.389Z,2952
2016-08-06T12:02:27.415Z,2284
2016-08-06T12:03:27.617Z,2272
2016-08-06T12:04:27.553Z,2516
2016-08-06T12:05:27.403Z,2720
2016-08-06T12:06:27.411Z,2700
2016-08-06T12:07:27.374Z,3068
2016-08-06T12:08:27.439Z,3516
2016-08-06T12:09:27.404Z,3316
2016-08-06T12:10:27.417Z,3252
2016-08-06T12:11:27.387Z,2904
2016-08-06T12:12:27.400Z,2772
2016-08-06T12:13:27.441Z,2340
2016-08-06T12:14:27.590Z,3200
2016-08-06T12:15:27.465Z,5468
2016-08-06T12:16:27.381Z,6552
2016-08-06T12:17:27.412Z,7384
2016-08-06T12:18:27.357Z,8404
2016-08-06T12:19:27.446Z,10820
2016-08-06T12:20:27.411Z,10568
2016-08-06T12:21:27.527Z,12672
2016-08-06T12:22:28.148Z,13948
2016-08-06T12:23:27.431Z,15900
2016-08-06T12:24:28.165Z,16640
2016-08-06T12:25:27.384Z,17660
2016-08-06T12:26:27.462Z,16604
2016-08-06T12:27:27.429Z,15508
2016-08-06T12:28:27.409Z,13248
2016-08-06T12:29:27.408Z,12304
2016-08-06T12:30:27.436Z,11828
2016-08-06T12:31:27.382Z,12364
2016-08-06T12:32:27.389Z,13188
2016-08-06T12:33:27.488Z,14020
2016-08-06T12:34:27.394Z,13576
2016-08-06T12:35:27.561Z,12560
2016-08-06T12:36:27.374Z,11972
2016-08-06T12:37:27.452Z,11604
2016-08-06T12:38:27.410Z,11340
2016-08-06T12:39:27.413Z,10356
2016-08-06T12:40:27.427Z,10548
2016-08-06T12:41:27.403Z,11408
2016-08-06T12:42:27.467Z,14648
2016-08-06T12:43:27.432Z,15004
2016-08-06T12:44:27.395Z,12576
2016-08-06T12:45:27.425Z,14064
2016-08-06T12:46:27.481Z,12636
2016-08-06T12:47:27.458Z,11068
2016-08-06T12:48:27.401Z,12252
2016-08-06T12:49:27.396Z,14460
2016-08-06T12:50:27.428Z,11756
2016-08-06T12:51:27.399Z,14752
2016-08-06T12:52:27.399Z,14836
2016-08-06T12:53:27.456Z,14084
2016-08-06T12:54:27.415Z,13780
2016-08-06T12:55:27.442Z,14944
2016-08-06T12:56:27.434Z,16032
2016-08-06T12:57:27.434Z,17460
2016-08-06T12:58:27.442Z,12920
2016-08-06T12:59:27.505Z,15360
2016-08-06T13:00:27.483Z,17784
2016-08-06T13:01:27.422Z,15740
2016-08-06T13:02:27.440Z,18912
2016-08-06T13:03:27.290Z,18688
2016-08-06T13:04:27.390Z,16088
2016-08-06T13:05:27.477Z,17580
2016-08-06T13:06:27.442Z,18288
2016-08-06T13:07:27.420Z,17408
2016-08-06T13:08:27.400Z,17092
2016-08-06T13:09:27.464Z,12612
2016-08-06T13:10:27.507Z,9308
2016-08-06T13:11:27.404Z,7072
2016-08-06T13:12:27.441Z,7292
2016-08-06T13:13:27.434Z,12144
2016-08-06T13:14:27.450Z,10876
2016-08-06T13:15:27.396Z,13808
2016-08-06T13:16:28.122Z,15400
2016-08-06T13:17:27.586Z,16716
2016-08-06T13:18:27.232Z,18032
2016-08-06T13:19:27.643Z,16840
2016-08-06T13:20:27.539Z,13908
2016-08-06T13:21:27.461Z,14112
2016-08-06T13:22:27.459Z,15692
2016-08-06T13:23:27.531Z,15024
2016-08-06T13:24:27.488Z,16324
2016-08-06T13:25:27.461Z,18944
2016-08-06T13:26:27.525Z,18296
2016-08-06T13:27:27.523Z,17100
2016-08-06T13:28:27.497Z,16568
2016-08-06T13:29:28.068Z,18784
2016-08-06T13:30:27.555Z,20512
2016-08-06T13:31:27.470Z,19008
2016-08-06T13:32:27.796Z,15484
2016-08-06T13:34:27.436Z,16332
2016-08-06T13:35:27.473Z,17288
2016-08-06T13:36:27.466Z,14556
2016-08-06T13:37:28.181Z,11816
2016-08-06T13:38:27.519Z,9336
2016-08-06T13:39:28.260Z,8500
2016-08-06T13:40:27.431Z,8464
2016-08-06T13:41:27.439Z,9128
2016-08-06T13:42:27.587Z,9536
2016-08-06T13:43:27.555Z,9300
2016-08-06T13:44:27.532Z,8944
2016-08-06T13:45:27.476Z,10108
2016-08-06T13:46:27.496Z,10460
2016-08-06T13:47:27.517Z,12948
2016-08-06T13:49:27.557Z,13220